Messwerte Mary's Harbour

Temperatur

Temperatur
°C
1594371600 6.00 6.00 12
1594375200 7.00 7.00 14
1594378800 8.00 8.00 15
1594382400 9.00 9.00
1594386000 10.00 10.00 19
1594389600 11.00 11.00 19
1594393200 12.00 12.00 20
1594396800 13.00 13.00 21
1594400400 14.00 14.00 20
1594404000 15.00 15.00 21
1594407600 16.00 16.00 21
1594411200 17.00 17.00 22
1594414800 18.00 18.00 23
1594418400 19.00 19.00
1594422000 20.00 20.00 19
1594425600 21.00 21.00
1594429200 22.00 22.00
1594432800 23.00 23.00
1594436400 0.00 0.00
1594440000 1.00 1.00 15
1594443600 2.00 2.00 15
1594447200 3.00 3.00 14
1594450800 4.00 4.00 15
1594454400 5.00 5.00 16

Aktuellste Messwerte

Wettercharakter
Wetter: wechselnd bewölkt
Temperatur
16 °C
Feuchtigkeit
80 %
Wind
5 km/hWindrichtung: Südwest
Luftdruck
1015 hPa
Messzeit: 11. Juli 2020, 5.00Datenquelle: METAR

Weitere Messstationen in der Nähe

Messstation Temperatur Entfernung
St. Anthony 14 °C 104 km
Blanc-Sablon 11 °C 132 km
Ferolle Point 12 °C 167 km
Englee 11 °C 177 km
Twillingate 13 °C 300 km
Goose Bay 22 °C 328 km
Chevery - 334 km

Wind

Windrichtung Böen Mittelwind
° km/h km/h
1594371600 6.00 5.00 - 6.00 230° 5
1594375200 7.00 6.00 - 7.00 320° 10
1594378800 8.00 7.00 - 8.00 5
1594382400 9.00 8.00 - 9.00
1594386000 10.00 9.00 - 10.00 60° 10
1594389600 11.00 10.00 - 11.00 60° 10
1594393200 12.00 11.00 - 12.00 60° 15
1594396800 13.00 12.00 - 13.00 50° 10
1594400400 14.00 13.00 - 14.00 80° 20
1594404000 15.00 14.00 - 15.00 130° 10
1594407600 16.00 15.00 - 16.00 130° 20
1594411200 17.00 16.00 - 17.00 150° 20
1594414800 18.00 17.00 - 18.00 130° 20
1594418400 19.00 18.00 - 19.00
1594422000 20.00 19.00 - 20.00 170° 15
1594425600 21.00 20.00 - 21.00
1594429200 22.00 21.00 - 22.00
1594432800 23.00 22.00 - 23.00
1594436400 0.00 23.00 - 0.00
1594440000 1.00 0.00 - 1.00 200° 15
1594443600 2.00 1.00 - 2.00 180° 10
1594447200 3.00 2.00 - 3.00 140° 5
1594450800 4.00 3.00 - 4.00 190° 10
1594454400 5.00 4.00 - 5.00 220° 5

Ihre Wetterstation

Fehlt Ihre Wetterstation auf unserem Portal?

Schreiben Sie an network@meteonews.ch

Klima

Wann ist es am wärmsten? Wann regnet es am wenigsten? Unsere Klimadaten geben Auskunft.